Time;durP1;ratioP1;P1;durP2;ratioP2;P2;SDS_P1;SDS_P2;PMS_P1;PMS_P2;Temp;Humidity;BMP_temperature;BMP_pressure;BME280_temperature;BME280_humidity;BME280_pressure;Samples;Min_cycle;Max_cycle;Signal;HPM_P1;HPM_P2
2022/09/19 00:01:45;;;;;;;2.90;1.20;;;9.40;89.00;;;;;;5055221;28;20726;-90
2022/09/19 00:04:25;;;;;;;1.20;1.10;;;9.30;89.00;;;;;;5055238;28;20182;-91
2022/09/19 00:06:53;;;;;;;1.30;1.20;;;9.30;89.10;;;;;;5055044;28;20209;-90
2022/09/19 00:09:21;;;;;;;1.40;1.30;;;9.30;89.10;;;;;;5055034;28;20232;-91
2022/09/19 00:11:48;;;;;;;1.67;1.33;;;9.30;89.20;;;;;;5055040;28;20235;-90
2022/09/19 00:14:15;;;;;;;2.27;1.30;;;9.20;89.20;;;;;;5061021;28;20313;-90
2022/09/19 00:16:44;;;;;;;3.33;1.60;;;9.20;89.40;;;;;;5068836;28;20218;-93
2022/09/19 00:19:12;;;;;;;1.87;1.23;;;9.20;89.50;;;;;;5065260;28;20180;-92
2022/09/19 00:21:40;;;;;;;1.43;1.30;;;9.20;89.70;;;;;;5059509;28;20613;-92
2022/09/19 00:26:55;;;;;;;1.50;1.13;;;9.20;89.90;;;;;;5075206;28;20730;-91
2022/09/19 00:29:21;;;;;;;3.07;1.30;;;9.30;90.00;;;;;;5054849;28;20171;-91
2022/09/19 00:31:47;;;;;;;5.90;1.30;;;9.30;90.00;;;;;;5054775;28;20218;-92
2022/09/19 00:34:15;;;;;;;1.90;1.30;;;9.30;90.10;;;;;;5072854;28;20202;-89
2022/09/19 00:36:42;;;;;;;1.43;1.30;;;9.30;90.20;;;;;;5054794;28;20220;-90
2022/09/19 00:39:09;;;;;;;3.40;1.60;;;9.30;90.20;;;;;;5054925;28;20543;-91
2022/09/19 00:41:36;;;;;;;2.60;1.43;;;9.30;90.30;;;;;;5054787;28;20184;-91
2022/09/19 00:44:05;;;;;;;3.60;1.40;;;9.30;90.30;;;;;;5058499;28;20203;-93
2022/09/19 00:46:33;;;;;;;2.47;1.40;;;9.30;90.30;;;;;;5076376;28;20227;-91
2022/09/19 00:49:10;;;;;;;3.60;1.40;;;9.30;90.30;;;;;;5058452;28;20187;-91
2022/09/19 00:51:39;;;;;;;2.00;1.20;;;9.30;90.40;;;;;;5058422;28;20247;-90
2022/09/19 00:54:28;;;;;;;1.93;1.30;;;9.40;90.50;;;;;;5058260;28;20266;-91
2022/09/19 00:56:55;;;;;;;1.27;1.17;;;9.30;90.40;;;;;;5058180;28;20191;-89
2022/09/19 00:59:23;;;;;;;3.37;1.20;;;9.40;90.50;;;;;;5058167;28;20281;-91
2022/09/19 01:01:53;;;;;;;1.40;1.20;;;9.40;90.60;;;;;;5058132;28;20175;-89
2022/09/19 01:04:24;;;;;;;1.40;1.30;;;9.40;90.60;;;;;;5058016;28;20176;-91
2022/09/19 01:07:16;;;;;;;1.77;1.20;;;9.40;90.60;;;;;;5057994;28;20195;-91
2022/09/19 01:09:53;;;;;;;4.40;1.50;;;9.30;90.60;;;;;;5057987;28;20567;-91
2022/09/19 01:12:44;;;;;;;3.83;1.30;;;9.40;90.70;;;;;;5057978;28;20163;-92
2022/09/19 01:15:33;;;;;;;2.23;1.30;;;9.40;90.60;;;;;;5058021;28;20167;-90
2022/09/19 01:18:01;;;;;;;1.53;1.30;;;9.40;90.70;;;;;;5075768;28;20281;-91
2022/09/19 01:21:38;;;;;;;2.97;1.97;;;9.40;90.70;;;;;;5057758;28;20190;-91
2022/09/19 01:24:10;;;;;;;3.37;1.13;;;9.30;90.70;;;;;;5075641;28;20245;-90
2022/09/19 01:26:58;;;;;;;4.17;2.33;;;9.40;90.70;;;;;;5057625;28;20199;-88
2022/09/19 01:29:49;;;;;;;4.60;1.50;;;9.30;90.60;;;;;;5058182;28;20186;-91
2022/09/19 01:32:25;;;;;;;4.37;1.43;;;9.40;90.70;;;;;;5057615;28;20192;-90
2022/09/19 01:34:57;;;;;;;3.27;1.80;;;9.40;90.60;;;;;;5057663;28;20167;-91
2022/09/19 01:37:30;;;;;;;5.67;1.40;;;9.40;90.50;;;;;;5057574;28;20290;-90
2022/09/19 01:40:00;;;;;;;1.47;1.10;;;9.40;90.50;;;;;;5057539;28;20630;-90
2022/09/19 01:42:26;;;;;;;4.37;1.30;;;9.40;90.40;;;;;;5058288;28;20357;-90
2022/09/19 01:44:53;;;;;;;4.67;1.40;;;9.30;90.40;;;;;;5057320;28;20555;-91
2022/09/19 01:47:48;;;;;;;2.20;1.33;;;9.30;90.40;;;;;;5057334;28;20199;-90
2022/09/19 01:50:34;;;;;;;5.80;1.47;;;9.30;90.40;;;;;;5057249;28;20282;-92
2022/09/19 01:53:32;;;;;;;3.07;1.03;;;9.40;90.40;;;;;;5057064;28;20175;-90
2022/09/19 01:56:28;;;;;;;1.47;1.30;;;9.40;90.40;;;;;;5057218;28;20245;-91
2022/09/19 01:59:22;;;;;;;2.23;1.10;;;9.30;90.20;;;;;;5057381;28;20171;-90
2022/09/19 02:02:05;;;;;;;3.00;1.20;;;9.30;90.30;;;;;;5057728;28;20254;-90
2022/09/19 02:04:41;;;;;;;1.30;1.20;;;9.30;90.30;;;;;;5057163;28;20258;-91
2022/09/19 02:07:21;;;;;;;1.47;1.30;;;9.30;90.30;;;;;;5057094;28;20598;-90
2022/09/19 02:10:16;;;;;;;7.00;1.40;;;9.30;90.30;;;;;;5056963;28;20202;-91
2022/09/19 02:12:43;;;;;;;2.00;1.30;;;9.30;90.30;;;;;;5057255;28;20246;-90
2022/09/19 02:15:11;;;;;;;10.13;1.60;;;9.30;90.30;;;;;;5056997;28;20175;-90
2022/09/19 02:17:44;;;;;;;3.90;1.33;;;9.30;90.30;;;;;;5056846;28;20195;-91
2022/09/19 02:20:16;;;;;;;3.70;1.40;;;9.30;90.30;;;;;;5057808;28;20168;-91
2022/09/19 02:22:49;;;;;;;2.53;1.10;;;9.30;90.20;;;;;;5056691;28;20194;-91
2022/09/19 02:25:22;;;;;;;4.77;1.57;;;9.30;90.20;;;;;;5056702;28;20172;-91
2022/09/19 02:28:00;;;;;;;2.77;1.40;;;9.40;90.20;;;;;;5056472;28;20195;-90
2022/09/19 02:30:27;;;;;;;6.73;1.50;;;9.30;90.20;;;;;;5056642;28;20194;-90
2022/09/19 02:32:53;;;;;;;1.20;1.10;;;9.40;90.20;;;;;;5056521;28;20186;-91
2022/09/19 02:35:36;;;;;;;8.03;1.77;;;9.40;90.20;;;;;;5056382;28;20171;-90
2022/09/19 02:38:25;;;;;;;1.70;1.30;;;9.40;90.20;;;;;;5056553;28;20199;-91
2022/09/19 02:40:59;;;;;;;4.87;1.50;;;9.40;90.10;;;;;;5056614;28;20172;-91
2022/09/19 02:43:46;;;;;;;5.37;1.60;;;9.40;90.20;;;;;;5056445;28;20173;-91
2022/09/19 02:46:35;;;;;;;5.33;1.40;;;9.40;90.30;;;;;;5056178;28;20261;-90
2022/09/19 02:49:18;;;;;;;5.40;1.77;;;9.50;90.30;;;;;;5056093;28;20246;-91
2022/09/19 02:51:58;;;;;;;8.00;2.20;;;9.50;90.40;;;;;;5073832;28;20187;-91
2022/09/19 02:54:31;;;;;;;8.83;1.73;;;9.60;90.50;;;;;;5056045;28;20160;-90
2022/09/19 02:57:02;;;;;;;5.00;1.87;;;9.60;90.40;;;;;;5055891;28;20235;-91
2022/09/19 02:59:32;;;;;;;8.80;2.07;;;9.60;90.40;;;;;;5056296;28;20168;-90
2022/09/19 03:02:03;;;;;;;6.47;1.47;;;9.50;90.30;;;;;;5056126;28;20175;-91
2022/09/19 03:04:36;;;;;;;6.67;2.00;;;9.60;90.50;;;;;;5056208;28;20233;-90
2022/09/19 03:07:13;;;;;;;5.60;1.50;;;9.60;90.40;;;;;;5056312;28;20618;-90
2022/09/19 03:09:44;;;;;;;5.87;2.53;;;9.60;90.50;;;;;;5056119;28;20159;-92
2022/09/19 03:12:33;;;;;;;7.47;1.60;;;9.60;90.50;;;;;;5055834;28;20248;-90
2022/09/19 03:14:58;;;;;;;10.57;2.10;;;9.70;90.60;;;;;;5055833;28;20618;-91
2022/09/19 03:17:35;;;;;;;7.03;2.17;;;9.60;90.60;;;;;;5055728;28;20205;-91
2022/09/19 03:20:01;;;;;;;8.17;1.83;;;9.70;90.70;;;;;;5055673;28;20171;-91
2022/09/19 03:22:26;;;;;;;12.73;1.93;;;9.70;90.70;;;;;;5055484;28;20206;-90
2022/09/19 03:24:52;;;;;;;7.97;2.23;;;9.70;90.70;;;;;;5056159;28;20183;-90
2022/09/19 03:27:17;;;;;;;11.53;2.23;;;9.60;90.70;;;;;;5055886;28;20195;-91
2022/09/19 03:29:43;;;;;;;11.43;2.10;;;9.70;90.80;;;;;;5055996;28;20553;-91
2022/09/19 03:32:10;;;;;;;8.03;2.20;;;9.70;91.00;;;;;;5055957;28;20634;-91
2022/09/19 03:34:37;;;;;;;9.80;2.87;;;9.80;91.10;;;;;;5055790;28;20167;-90
2022/09/19 03:37:02;;;;;;;11.30;2.30;;;9.70;91.10;;;;;;5055703;28;20278;-89
2022/09/19 03:39:28;;;;;;;11.20;2.40;;;9.70;91.10;;;;;;5055677;28;20656;-90
2022/09/19 03:41:54;;;;;;;13.90;2.30;;;9.60;91.20;;;;;;5055736;28;20171;-91
2022/09/19 03:44:20;;;;;;;9.13;2.27;;;9.60;91.40;;;;;;5055779;28;20198;-91
2022/09/19 03:46:46;;;;;;;13.97;2.37;;;9.80;91.70;;;;;;5073627;28;20671;-92
2022/09/19 03:49:12;;;;;;;12.97;2.73;;;9.80;92.00;;;;;;5055490;28;20555;-90
2022/09/19 03:51:38;;;;;;;10.23;1.90;;;9.80;92.00;;;;;;5055281;28;20588;-90
2022/09/19 03:54:04;;;;;;;10.80;1.87;;;9.90;92.30;;;;;;5055325;28;20171;-88
2022/09/19 03:56:30;;;;;;;4.17;1.70;;;9.90;92.50;;;;;;5055409;28;20199;-91
2022/09/19 03:58:56;;;;;;;12.10;2.43;;;9.80;92.50;;;;;;5055325;28;20179;-89
2022/09/19 04:01:21;;;;;;;11.33;2.57;;;9.90;92.70;;;;;;5055272;28;20202;-91
2022/09/19 04:03:48;;;;;;;8.07;2.47;;;9.80;92.70;;;;;;5055540;28;20175;-91
2022/09/19 04:06:14;;;;;;;12.80;2.20;;;9.80;92.80;;;;;;5055396;28;20294;-90
2022/09/19 04:08:40;;;;;;;13.40;2.53;;;9.70;92.70;;;;;;5055665;28;20203;-91
2022/09/19 04:11:06;;;;;;;7.17;1.80;;;9.70;92.90;;;;;;5056033;28;20223;-90
2022/09/19 04:13:33;;;;;;;10.23;2.30;;;9.70;92.90;;;;;;5055292;28;20179;-90
2022/09/19 04:16:00;;;;;;;8.47;2.93;;;9.60;92.90;;;;;;5055509;28;20174;-92
2022/09/19 04:18:26;;;;;;;7.70;2.47;;;9.60;92.90;;;;;;5058207;28;20182;-91
2022/09/19 04:20:51;;;;;;;6.57;2.13;;;9.60;93.00;;;;;;5059184;28;20179;-91
2022/09/19 04:23:18;;;;;;;14.70;2.37;;;9.50;93.00;;;;;;5059186;28;20178;-92
2022/09/19 04:25:46;;;;;;;10.93;2.70;;;9.50;93.10;;;;;;5061252;28;20179;-91
2022/09/19 04:28:12;;;;;;;10.70;2.40;;;9.50;93.00;;;;;;5060006;28;20176;-91
2022/09/19 04:30:40;;;;;;;8.43;2.00;;;9.50;93.10;;;;;;5060156;28;20249;-91
2022/09/19 04:33:07;;;;;;;13.17;2.40;;;9.40;93.10;;;;;;5059435;28;20175;-90
2022/09/19 04:35:35;;;;;;;15.60;3.53;;;9.40;93.10;;;;;;5059101;28;20175;-91
2022/09/19 04:38:18;;;;;;;12.03;2.63;;;9.70;93.40;;;;;;5058666;28;20320;-91
2022/09/19 04:40:48;;;;;;;9.13;2.43;;;9.80;93.50;;;;;;5059229;28;20178;-91
2022/09/19 04:43:16;;;;;;;13.47;2.80;;;9.80;93.60;;;;;;5058950;28;20175;-91
2022/09/19 04:45:47;;;;;;;16.63;5.73;;;9.90;93.60;;;;;;5058802;28;20175;-90
2022/09/19 04:48:13;;;;;;;16.83;3.00;;;10.00;93.70;;;;;;5058872;28;20171;-90
2022/09/19 04:50:38;;;;;;;16.60;3.63;;;10.00;93.70;;;;;;5058554;28;20542;-91
2022/09/19 04:53:05;;;;;;;13.83;3.00;;;10.10;93.80;;;;;;5058563;28;20178;-91
2022/09/19 04:55:31;;;;;;;16.30;2.83;;;10.10;93.80;;;;;;5058439;28;20171;-91
2022/09/19 04:57:57;;;;;;;21.13;3.50;;;10.00;93.70;;;;;;5076289;28;20616;-91
2022/09/19 05:00:39;;;;;;;17.27;2.80;;;10.00;93.70;;;;;;5058185;28;20187;-90
2022/09/19 05:03:16;;;;;;;15.17;2.87;;;10.00;93.80;;;;;;5058749;28;20567;-90
2022/09/19 05:05:44;;;;;;;12.33;3.20;;;10.00;93.80;;;;;;5058073;28;20656;-91
2022/09/19 05:08:18;;;;;;;23.43;3.83;;;10.00;93.90;;;;;;5058239;28;20179;-90
2022/09/19 05:10:45;;;;;;;7.70;2.40;;;9.90;93.80;;;;;;5058096;28;20573;-90
2022/09/19 05:13:11;;;;;;;15.10;3.27;;;10.00;93.90;;;;;;5057968;28;20177;-90
2022/09/19 05:15:38;;;;;;;17.23;3.23;;;10.00;93.90;;;;;;5058114;28;20252;-90
2022/09/19 05:18:04;;;;;;;13.87;2.90;;;9.90;93.90;;;;;;5058781;28;20258;-91
2022/09/19 05:20:30;;;;;;;11.00;2.70;;;9.90;93.90;;;;;;5076083;28;20257;-91
2022/09/19 05:22:58;;;;;;;14.80;3.00;;;9.80;93.80;;;;;;5061272;28;20215;-90
2022/09/19 05:25:25;;;;;;;15.40;3.23;;;9.80;93.80;;;;;;5059465;28;20172;-90
2022/09/19 05:27:51;;;;;;;18.57;3.07;;;9.90;94.00;;;;;;5057806;28;20206;-88
2022/09/19 05:30:16;;;;;;;14.47;3.33;;;9.90;94.00;;;;;;5057405;28;20207;-92
2022/09/19 05:32:44;;;;;;;13.27;2.80;;;9.90;94.00;;;;;;5057706;28;20164;-90
2022/09/19 05:35:11;;;;;;;14.23;3.17;;;9.90;94.10;;;;;;5057837;28;20174;-90
2022/09/19 05:37:39;;;;;;;21.67;3.50;;;10.00;94.10;;;;;;5057777;28;20199;-90
2022/09/19 05:40:06;;;;;;;23.53;4.03;;;10.20;94.20;;;;;;5057599;28;20175;-91
2022/09/19 05:42:31;;;;;;;24.90;4.00;;;10.20;94.20;;;;;;5057785;28;20325;-91
2022/09/19 05:44:57;;;;;;;25.40;4.43;;;10.20;94.20;;;;;;5057870;28;20285;-90
2022/09/19 05:47:23;;;;;;;20.27;3.80;;;10.30;94.20;;;;;;5057686;28;20202;-90
2022/09/19 05:49:48;;;;;;;15.13;3.60;;;10.30;94.20;;;;;;5057430;28;20203;-90
2022/09/19 05:54:58;;;;;;;24.43;4.03;;;10.20;94.20;;;;;;5075698;28;20162;-90
2022/09/19 05:57:23;;;;;;;22.67;4.40;;;10.30;94.20;;;;;;5057211;28;20196;-90
2022/09/19 05:59:49;;;;;;;17.80;4.07;;;10.30;94.20;;;;;;5057320;28;20175;-89
2022/09/19 06:02:14;;;;;;;15.57;3.60;;;10.30;94.30;;;;;;5057298;28;20180;-90
2022/09/19 06:04:40;;;;;;;22.27;3.83;;;10.30;94.20;;;;;;5057154;28;20211;-90
2022/09/19 06:07:06;;;;;;;21.30;4.07;;;10.30;94.30;;;;;;5057047;28;20222;-91
2022/09/19 06:09:31;;;;;;;18.33;3.53;;;10.30;94.30;;;;;;5057040;28;20701;-91
2022/09/19 06:11:57;;;;;;;29.03;4.37;;;10.50;94.30;;;;;;5057279;28;20172;-90
2022/09/19 06:14:23;;;;;;;25.13;4.33;;;10.50;94.30;;;;;;5056853;28;20641;-90
2022/09/19 06:16:49;;;;;;;16.43;3.70;;;10.60;94.40;;;;;;5056864;28;20199;-91
2022/09/19 06:19:15;;;;;;;24.93;4.07;;;10.70;94.50;;;;;;5056877;28;20182;-90
2022/09/19 06:21:41;;;;;;;18.47;3.20;;;10.80;94.50;;;;;;5056658;28;20199;-90
2022/09/19 06:24:07;;;;;;;25.67;3.60;;;10.90;94.60;;;;;;5056884;28;20187;-90
2022/09/19 06:26:34;;;;;;;30.77;3.50;;;11.00;94.50;;;;;;5057040;28;20289;-91
2022/09/19 06:29:01;;;;;;;24.80;3.73;;;11.10;94.50;;;;;;5057000;28;20228;-90
2022/09/19 06:31:27;;;;;;;30.30;4.20;;;11.20;94.60;;;;;;5074850;28;20195;-91
2022/09/19 06:33:53;;;;;;;26.60;3.83;;;11.40;94.60;;;;;;5056492;28;20187;-90
2022/09/19 06:36:19;;;;;;;24.97;3.77;;;11.50;94.60;;;;;;5056871;28;20688;-90
2022/09/19 06:38:45;;;;;;;39.33;6.50;;;11.60;94.60;;;;;;5056423;28;20183;-91
2022/09/19 06:41:11;;;;;;;25.80;4.13;;;11.70;94.60;;;;;;5056497;28;20182;-90
2022/09/19 06:43:36;;;;;;;27.00;4.00;;;11.80;94.60;;;;;;5056745;28;20650;-90
2022/09/19 06:46:02;;;;;;;22.53;3.17;;;11.90;94.50;;;;;;5074860;28;20203;-91
2022/09/19 06:48:28;;;;;;;20.87;3.70;;;11.90;94.40;;;;;;5057531;28;20281;-91
2022/09/19 06:50:53;;;;;;;21.40;3.97;;;11.90;94.40;;;;;;5057290;28;20207;-93
2022/09/19 06:53:19;;;;;;;24.73;4.13;;;12.00;94.40;;;;;;5058091;28;20522;-91
2022/09/19 06:55:45;;;;;;;24.53;3.67;;;12.10;94.10;;;;;;5063524;28;20186;-91
2022/09/19 06:58:12;;;;;;;27.23;4.30;;;12.00;93.90;;;;;;5069854;28;20179;-90
2022/09/19 07:00:40;;;;;;;23.20;3.47;;;12.10;93.90;;;;;;5056686;28;20633;-91
2022/09/19 07:03:09;;;;;;;26.27;4.17;;;12.30;93.90;;;;;;5056297;28;20175;-89
2022/09/19 07:05:36;;;;;;;34.17;4.37;;;12.30;93.80;;;;;;5056423;28;20695;-90
2022/09/19 07:08:03;;;;;;;29.13;5.37;;;12.40;93.80;;;;;;5074036;28;20249;-90
2022/09/19 07:10:28;;;;;;;18.17;3.93;;;12.30;93.60;;;;;;5073640;28;20207;-90
2022/09/19 07:13:01;;;;;;;23.40;4.27;;;12.30;93.50;;;;;;5056031;28;20553;-90
2022/09/19 07:15:28;;;;;;;35.10;6.63;;;12.40;93.40;;;;;;5074034;28;20246;-90
2022/09/19 07:17:55;;;;;;;27.20;4.00;;;12.40;93.40;;;;;;5055827;28;20201;-90
2022/09/19 07:20:21;;;;;;;22.20;3.97;;;12.50;93.40;;;;;;5056287;28;20206;-91
2022/09/19 07:22:47;;;;;;;29.03;4.77;;;12.50;93.30;;;;;;5074209;28;20195;-90
2022/09/19 07:25:13;;;;;;;20.47;3.73;;;12.60;93.10;;;;;;5055774;28;20179;-90
2022/09/19 07:27:41;;;;;;;35.73;6.47;;;12.70;93.10;;;;;;5073430;28;20198;-90
2022/09/19 07:30:07;;;;;;;16.83;3.87;;;12.70;93.00;;;;;;5055807;28;20191;-89
2022/09/19 07:32:33;;;;;;;27.63;4.33;;;12.80;93.00;;;;;;5055803;28;20167;-90
2022/09/19 07:34:58;;;;;;;31.53;5.57;;;12.80;92.80;;;;;;5055761;28;20179;-90
2022/09/19 07:37:24;;;;;;;19.07;3.77;;;12.80;92.70;;;;;;5055588;28;20191;-91
2022/09/19 07:39:49;;;;;;;24.00;4.67;;;12.90;92.90;;;;;;5055704;28;20167;-91
2022/09/19 07:42:15;;;;;;;31.93;4.87;;;13.00;92.80;;;;;;5055574;28;20175;-91
2022/09/19 07:44:40;;;;;;;31.00;5.63;;;13.10;92.70;;;;;;5055535;28;20171;-90
2022/09/19 07:49:50;;;;;;;30.63;5.07;;;13.30;92.70;;;;;;5073892;28;20166;-90
2022/09/19 07:52:16;;;;;;;30.63;5.03;;;13.30;92.60;;;;;;5075065;28;20179;-90
2022/09/19 07:54:41;;;;;;;23.40;5.77;;;13.40;92.50;;;;;;5059871;28;20224;-90
2022/09/19 07:57:07;;;;;;;30.47;7.83;;;13.50;92.40;;;;;;5059574;28;20199;-90
2022/09/19 07:59:33;;;;;;;27.70;6.57;;;13.60;92.50;;;;;;5059693;28;20191;-89
2022/09/19 08:01:58;;;;;;;34.87;7.70;;;13.60;92.30;;;;;;5059417;28;20207;-90
2022/09/19 08:04:24;;;;;;;30.03;5.83;;;13.70;92.10;;;;;;5059902;28;20175;-90
2022/09/19 08:06:49;;;;;;;24.87;5.07;;;13.70;92.00;;;;;;5059678;28;20199;-91
2022/09/19 08:09:15;;;;;;;23.30;3.93;;;13.80;91.90;;;;;;5059622;28;20182;-90
2022/09/19 08:11:40;;;;;;;22.17;5.97;;;13.80;91.90;;;;;;5059241;28;20217;-91
2022/09/19 08:14:06;;;;;;;32.57;4.87;;;13.90;91.80;;;;;;5061112;28;20182;-91
2022/09/19 08:16:31;;;;;;;33.60;4.77;;;13.90;91.90;;;;;;5077254;28;20202;-91
2022/09/19 08:18:58;;;;;;;24.27;4.43;;;14.00;92.10;;;;;;5078188;28;20171;-91
2022/09/19 08:21:24;;;;;;;28.90;4.30;;;14.10;92.00;;;;;;5059110;28;20218;-90
2022/09/19 08:23:50;;;;;;;35.73;5.07;;;14.10;91.90;;;;;;5059274;28;20179;-89
2022/09/19 08:26:16;;;;;;;31.10;4.63;;;14.20;91.90;;;;;;5059180;28;20191;-90
2022/09/19 08:28:42;;;;;;;25.37;5.23;;;14.20;91.70;;;;;;5061133;28;20305;-91
2022/09/19 08:31:09;;;;;;;28.27;5.13;;;14.30;91.70;;;;;;5059155;28;20293;-90
2022/09/19 08:33:35;;;;;;;32.23;5.43;;;14.30;91.60;;;;;;5059070;28;20262;-89
2022/09/19 08:36:01;;;;;;;33.90;5.00;;;14.20;91.30;;;;;;5077093;28;20219;-90
2022/09/19 08:38:27;;;;;;;25.33;4.63;;;14.30;91.40;;;;;;5058938;28;20171;-90
2022/09/19 08:41:10;;;;;;;24.13;4.53;;;14.30;91.10;;;;;;5058801;28;20262;-91
2022/09/19 08:44:01;;;;;;;33.67;6.17;;;14.30;91.00;;;;;;5059117;28;20710;-90
2022/09/19 08:46:39;;;;;;;32.33;5.17;;;14.50;91.20;;;;;;5059610;28;20219;-90
2022/09/19 08:49:09;;;;;;;29.90;4.77;;;14.60;91.30;;;;;;5077150;28;20163;-91
2022/09/19 08:51:46;;;;;;;30.67;4.70;;;14.80;91.20;;;;;;5058628;28;20190;-88
2022/09/19 08:54:40;;;;;;;22.77;4.27;;;14.80;91.10;;;;;;5076912;28;20150;-90
2022/09/19 08:57:13;;;;;;;26.40;4.57;;;14.90;90.50;;;;;;5058381;28;20568;-91
2022/09/19 08:59:39;;;;;;;24.27;5.85;;;15.00;89.60;;;;;;5058475;28;20170;-91
2022/09/19 09:02:36;;;;;;;26.52;4.47;;;15.10;89.10;;;;;;5058231;28;20258;-90
2022/09/19 09:05:01;;;;;;;22.40;4.38;;;15.30;88.70;;;;;;5058309;28;20175;-90
2022/09/19 09:07:45;;;;;;;23.35;4.20;;;15.50;87.40;;;;;;5058302;28;20544;-91
2022/09/19 09:10:21;;;;;;;26.75;3.72;;;15.60;86.80;;;;;;5058051;28;20240;-89
2022/09/19 09:12:49;;;;;;;20.38;3.75;;;15.60;85.90;;;;;;5058458;28;20259;-90
2022/09/19 09:15:24;;;;;;;23.13;5.07;;;15.70;86.00;;;;;;5058571;28;20172;-89
2022/09/19 09:18:14;;;;;;;24.83;4.07;;;15.80;86.00;;;;;;5058940;28;20186;-91
2022/09/19 09:21:09;;;;;;;21.13;4.22;;;15.90;85.60;;;;;;5058274;28;20174;-91
2022/09/19 09:23:41;;;;;;;24.30;3.88;;;16.20;85.50;;;;;;5058253;28;20189;-89
2022/09/19 09:26:40;;;;;;;22.05;4.40;;;16.30;84.30;;;;;;5057884;28;20673;-90
2022/09/19 09:29:25;;;;;;;25.77;5.38;;;16.20;83.90;;;;;;5032416;28;20191;-90
2022/09/19 09:32:00;;;;;;;20.25;3.22;;;16.10;83.30;;;;;;5075823;28;20179;-90
2022/09/19 09:34:30;;;;;;;20.48;4.43;;;16.30;83.00;;;;;;5066621;28;20166;-92
2022/09/19 09:37:24;;;;;;;22.10;4.07;;;16.30;82.70;;;;;;5073229;28;20692;-92
2022/09/19 09:40:09;;;;;;;18.98;3.75;;;16.30;82.20;;;;;;5069613;28;20195;-91
2022/09/19 09:42:51;;;;;;;22.45;4.05;;;16.30;82.80;;;;;;5062991;28;20167;-89
2022/09/19 09:45:27;;;;;;;17.70;3.22;;;16.30;82.30;;;;;;5057633;28;20170;-90
2022/09/19 09:48:14;;;;;;;18.50;3.92;;;16.30;81.40;;;;;;5057227;28;20202;-89
2022/09/19 09:50:53;;;;;;;24.27;3.78;;;16.30;81.60;;;;;;5057078;28;20687;-89
2022/09/19 09:53:37;;;;;;;18.98;3.25;;;16.40;82.20;;;;;;5057096;28;20191;-89
2022/09/19 09:56:24;;;;;;;25.02;4.15;;;16.20;80.90;;;;;;5057098;28;20214;-88
2022/09/19 10:05:57;;;;;;;15.40;3.08;;;16.20;81.20;;;;;;5074973;28;20217;-90
2022/09/19 10:08:28;;;;;;;19.70;4.13;;;16.40;80.10;;;;;;5056254;28;20186;-90
2022/09/19 10:11:16;;;;;;;19.63;4.38;;;16.50;79.60;;;;;;5056749;28;20195;-89
2022/09/19 10:14:01;;;;;;;22.55;4.35;;;16.50;78.80;;;;;;5056691;28;20171;-90
2022/09/19 10:16:32;;;;;;;14.57;2.38;;;16.60;79.50;;;;;;5056011;28;20187;-91
2022/09/19 10:19:11;;;;;;;18.63;3.40;;;16.70;78.20;;;;;;5057557;28;20659;-91
2022/09/19 10:21:38;;;;;;;17.27;3.50;;;16.70;78.40;;;;;;5059733;28;20210;-91
2022/09/19 10:24:40;;;;;;;18.05;3.05;;;16.90;79.10;;;;;;5060904;28;20209;-91
2022/09/19 10:27:16;;;;;;;12.35;2.38;;;17.00;78.30;;;;;;5057658;28;20202;-87
2022/09/19 10:30:11;;;;;;;11.27;2.75;;;17.00;76.70;;;;;;5058095;28;20266;-88
2022/09/19 10:32:37;;;;;;;10.50;2.50;;;17.20;75.40;;;;;;5057053;28;20350;-90
2022/09/19 10:35:26;;;;;;;12.05;2.13;;;17.50;75.40;;;;;;5056854;28;20181;-90
2022/09/19 10:38:26;;;;;;;8.15;2.35;;;17.80;74.80;;;;;;5056339;28;20187;-89
2022/09/19 10:41:00;;;;;;;6.70;2.13;;;17.80;73.90;;;;;;5013882;28;20271;-89
2022/09/19 10:43:40;;;;;;;11.15;2.17;;;17.70;70.80;;;;;;5056226;28;20171;-89
2022/09/19 10:46:07;;;;;;;4.28;1.40;;;17.30;73.20;;;;;;5056348;28;20191;-89
2022/09/19 10:48:40;;;;;;;8.63;1.52;;;17.10;71.00;;;;;;5056255;28;20306;-90
2022/09/19 10:51:13;;;;;;;3.50;1.05;;;16.70;72.70;;;;;;5057181;28;20199;-91
2022/09/19 10:53:45;;;;;;;4.30;1.20;;;16.30;72.30;;;;;;5058218;28;20167;-90
2022/09/19 10:56:29;;;;;;;6.85;1.50;;;15.90;71.80;;;;;;5056130;28;20187;-91
2022/09/19 10:59:21;;;;;;;10.77;2.00;;;15.60;75.10;;;;;;5064668;28;20167;-92
2022/09/19 11:02:08;;;;;;;8.90;2.17;;;15.50;78.30;;;;;;5136475;22;20314;-91
2022/09/19 11:04:35;;;;;;;12.93;2.13;;;15.50;79.40;;;;;;5096912;28;20228;-91
2022/09/19 11:07:13;;;;;;;12.95;2.63;;;15.50;80.60;;;;;;5097746;28;20289;-90
2022/09/19 11:09:39;;;;;;;10.65;2.20;;;15.60;81.30;;;;;;5096316;28;20166;-89
2022/09/19 11:12:14;;;;;;;10.65;3.80;;;15.60;82.10;;;;;;5096030;28;20240;-90
2022/09/19 11:14:41;;;;;;;10.20;2.58;;;15.70;83.00;;;;;;5096786;28;20165;-90
2022/09/19 11:17:36;;;;;;;14.73;2.90;;;15.90;83.20;;;;;;5095890;28;20190;-89
2022/09/19 11:20:20;;;;;;;8.40;2.00;;;15.90;82.60;;;;;;5096092;28;20174;-90
2022/09/19 11:23:09;;;;;;;4.20;1.48;;;16.10;81.80;;;;;;5097337;28;20174;-90
2022/09/19 11:25:44;;;;;;;6.15;1.20;;;16.00;76.20;;;;;;5097993;28;20170;-91
2022/09/19 11:28:45;;;;;;;3.58;0.90;;;16.20;75.30;;;;;;5096749;28;20599;-91
2022/09/19 11:31:31;;;;;;;4.97;1.60;;;16.30;74.80;;;;;;5097422;28;20246;-91
2022/09/19 11:34:05;;;;;;;8.35;2.05;;;16.50;74.80;;;;;;5096932;28;20227;-91
2022/09/19 11:37:13;;;;;;;6.53;1.40;;;16.70;75.40;;;;;;5096081;28;20201;-91
2022/09/19 11:40:04;;;;;;;8.80;1.63;;;16.70;74.70;;;;;;5096474;28;20256;-91
2022/09/19 11:42:32;;;;;;;3.88;1.23;;;16.50;72.20;;;;;;5096342;28;20178;-89
2022/09/19 11:45:12;;;;;;;7.80;2.42;;;16.50;74.10;;;;;;5096088;28;20177;-90
2022/09/19 11:48:01;;;;;;;7.72;1.80;;;16.50;74.50;;;;;;5095711;28;20193;-90
2022/09/19 11:50:43;;;;;;;7.93;2.25;;;16.50;75.20;;;;;;5096470;28;20561;-90
2022/09/19 11:53:49;;;;;;;8.68;1.80;;;16.60;75.90;;;;;;5096917;28;20264;-91
2022/09/19 11:56:36;;;;;;;18.70;2.85;;;16.60;76.50;;;;;;5096160;28;20201;-89
2022/09/19 11:59:14;;;;;;;13.88;2.65;;;16.50;77.00;;;;;;5096098;28;20288;-90
2022/09/19 12:02:19;;;;;;;11.93;2.72;;;16.50;77.80;;;;;;5114286;28;20203;-89
2022/09/19 12:04:48;;;;;;;12.88;2.92;;;16.50;78.10;;;;;;5113759;28;20177;-90
2022/09/19 12:07:42;;;;;;;15.38;2.58;;;16.70;78.80;;;;;;5095489;28;20190;-90
2022/09/19 12:10:24;;;;;;;11.43;2.55;;;17.00;78.40;;;;;;5113685;28;20190;-90
2022/09/19 12:13:02;;;;;;;10.93;2.65;;;17.30;77.40;;;;;;5095250;28;20174;-90
2022/09/19 12:15:34;;;;;;;11.25;2.25;;;17.50;77.20;;;;;;5113803;28;20158;-90
2022/09/19 12:18:00;;;;;;;12.07;2.15;;;18.00;76.80;;;;;;5095680;28;20272;-90
2022/09/19 12:20:33;;;;;;;17.35;2.80;;;18.30;75.20;;;;;;5095306;28;20182;-90
2022/09/19 12:26:01;;;;;;;13.20;3.70;;;18.80;72.70;;;;;;5113865;28;20223;-89
2022/09/19 12:28:33;;;;;;;13.90;2.70;;;18.80;71.00;;;;;;5095388;28;20178;-90
2022/09/19 12:31:02;;;;;;;16.95;2.97;;;18.60;70.40;;;;;;5095233;28;20198;-90
2022/09/19 12:33:52;;;;;;;14.65;2.78;;;18.30;70.20;;;;;;5095313;28;20200;-89
2022/09/19 12:36:30;;;;;;;14.73;2.60;;;18.10;71.80;;;;;;5095076;28;20197;-89
2022/09/19 12:39:09;;;;;;;11.35;2.50;;;17.70;72.40;;;;;;5097144;28;20170;-88
2022/09/19 12:41:58;;;;;;;15.27;2.67;;;17.80;72.60;;;;;;5098830;28;20173;-88
2022/09/19 12:44:49;;;;;;;7.93;2.20;;;18.20;71.90;;;;;;5098940;28;20196;-89
2022/09/19 12:47:55;;;;;;;7.85;1.90;;;18.50;70.50;;;;;;5091715;28;20198;-88
2022/09/19 12:50:32;;;;;;;10.13;2.40;;;18.70;67.60;;;;;;5098592;28;20204;-89
2022/09/19 12:53:09;;;;;;;8.35;1.88;;;19.10;68.00;;;;;;5117121;28;20671;-90
2022/09/19 12:55:56;;;;;;;5.85;1.50;;;19.20;63.50;;;;;;5098551;28;20555;-89
2022/09/19 12:58:42;;;;;;;7.50;1.30;;;19.20;61.90;;;;;;5098854;28;20166;-90
2022/09/19 13:01:31;;;;;;;1.90;0.70;;;19.20;62.20;;;;;;5098428;28;20214;-89
2022/09/19 13:04:09;;;;;;;1.85;0.60;;;18.50;58.20;;;;;;5098700;28;20174;-88
2022/09/19 13:06:40;;;;;;;2.05;0.70;;;18.00;60.70;;;;;;5117380;28;20535;-88
2022/09/19 13:09:22;;;;;;;5.68;0.98;;;17.50;61.20;;;;;;5116792;28;20182;-86
2022/09/19 13:12:13;;;;;;;1.58;0.90;;;17.20;63.40;;;;;;5098326;28;20246;-86
2022/09/19 13:14:44;;;;;;;6.60;1.13;;;17.10;64.90;;;;;;5116162;28;20227;-85
2022/09/19 13:25:38;;;;;;;1.73;0.80;;;17.80;63.60;;;;;;5116991;28;20162;-87
2022/09/19 13:28:19;;;;;;;4.18;1.00;;;18.20;60.90;;;;;;5097986;28;20690;-87
2022/09/19 13:30:49;;;;;;;1.23;0.63;;;18.40;60.20;;;;;;5116294;28;20198;-87
2022/09/19 13:33:45;;;;;;;1.77;0.50;;;18.90;61.50;;;;;;5098049;28;20166;-87
2022/09/19 13:36:22;;;;;;;2.13;0.90;;;19.10;59.20;;;;;;5070010;28;20205;-87
2022/09/19 13:38:55;;;;;;;8.15;1.25;;;19.30;58.60;;;;;;5116502;28;20236;-86
2022/09/19 13:41:49;;;;;;;1.42;0.70;;;19.20;57.20;;;;;;5116755;28;20161;-86
2022/09/19 13:44:30;;;;;;;0.43;0.43;;;18.70;60.00;;;;;;5098076;28;20674;-86
2022/09/19 13:47:22;;;;;;;1.85;0.82;;;18.50;59.30;;;;;;5097953;28;20213;-86